createdAt,value
2022-10-21T00:01:03.002Z,79.17
2022-10-21T00:03:29.432Z,78.98
2022-10-21T00:05:55.844Z,78.93
2022-10-21T00:08:22.453Z,78.94
2022-10-21T00:10:52.549Z,78.67
2022-10-21T00:13:19.142Z,78.87
2022-10-21T00:15:45.520Z,78.93
2022-10-21T00:18:11.914Z,78.83
2022-10-21T00:20:40.948Z,78.93
2022-10-21T00:23:07.481Z,79.00
2022-10-21T00:25:33.844Z,78.82
2022-10-21T00:28:00.210Z,78.94
2022-10-21T00:30:26.661Z,79.11
2022-10-21T00:32:53.037Z,78.96
2022-10-21T00:35:19.409Z,78.85
2022-10-21T00:37:45.785Z,79.07
2022-10-21T00:40:12.224Z,78.76
2022-10-21T00:42:42.341Z,79.22
2022-10-21T00:45:16.777Z,79.06
2022-10-21T00:50:38.721Z,79.42
2022-10-21T00:53:10.772Z,79.33
2022-10-21T00:55:39.676Z,79.54
2022-10-21T00:58:06.974Z,79.29
2022-10-21T01:00:33.348Z,79.43
2022-10-21T01:03:00.064Z,79.17
2022-10-21T01:05:26.865Z,79.30
2022-10-21T01:07:53.447Z,79.13
2022-10-21T01:10:19.889Z,79.45
2022-10-21T01:12:55.482Z,79.07
2022-10-21T01:15:25.886Z,79.14
2022-10-21T01:18:09.248Z,79.30
2022-10-21T01:20:47.146Z,79.18
2022-10-21T01:23:32.329Z,78.83
2022-10-21T01:26:14.188Z,79.17
2022-10-21T01:28:59.104Z,78.95
2022-10-21T01:31:34.538Z,79.16
2022-10-21T01:34:09.812Z,79.16
2022-10-21T01:36:42.165Z,79.54
2022-10-21T01:39:20.500Z,79.21
2022-10-21T01:42:16.356Z,79.07
2022-10-21T01:44:53.209Z,81.35
2022-10-21T01:47:22.807Z,81.42
2022-10-21T01:49:52.966Z,80.73
2022-10-21T01:52:19.800Z,80.46
2022-10-21T01:54:50.061Z,80.62
2022-10-21T01:57:19.171Z,80.71
2022-10-21T01:59:46.491Z,81.46
2022-10-21T02:02:13.281Z,81.06
2022-10-21T02:04:41.859Z,81.26
2022-10-21T02:07:08.662Z,81.17
2022-10-21T02:09:35.070Z,80.64
2022-10-21T02:12:03.057Z,81.02
2022-10-21T02:14:32.298Z,80.36
2022-10-21T02:16:59.390Z,80.54
2022-10-21T02:19:26.008Z,80.51
2022-10-21T02:21:54.031Z,80.38
2022-10-21T02:24:37.109Z,80.72
2022-10-21T02:27:03.646Z,80.16
2022-10-21T02:29:33.600Z,80.33
2022-10-21T02:32:08.926Z,80.19
2022-10-21T02:34:42.150Z,80.52
2022-10-21T02:37:27.324Z,79.93
2022-10-21T02:40:00.260Z,80.04
2022-10-21T02:42:28.801Z,80.19
2022-10-21T02:44:55.169Z,80.59
2022-10-21T02:47:23.605Z,80.33
2022-10-21T02:49:50.000Z,80.48
2022-10-21T02:52:16.366Z,80.32
2022-10-21T02:54:42.777Z,80.28
2022-10-21T02:57:09.265Z,80.31
2022-10-21T02:59:35.659Z,80.72
2022-10-21T03:02:02.091Z,79.98
2022-10-21T03:04:28.470Z,80.27
2022-10-21T03:06:54.918Z,79.93
2022-10-21T03:09:21.406Z,80.09
2022-10-21T03:11:47.779Z,80.25
2022-10-21T03:14:14.191Z,80.35
2022-10-21T03:16:40.568Z,80.21
2022-10-21T03:19:07.132Z,80.64
2022-10-21T03:21:33.845Z,80.24
2022-10-21T03:24:00.213Z,80.83
2022-10-21T03:26:26.621Z,80.80
2022-10-21T03:28:53.009Z,80.73
2022-10-21T03:31:19.452Z,80.34
2022-10-21T03:33:45.830Z,80.23
2022-10-21T03:36:12.208Z,80.39
2022-10-21T03:38:38.575Z,80.20
2022-10-21T03:41:05.057Z,80.11
2022-10-21T03:43:31.438Z,80.02
2022-10-21T03:45:57.796Z,80.20
2022-10-21T03:48:24.191Z,80.11
2022-10-21T03:50:50.634Z,79.97
2022-10-21T03:53:30.896Z,79.73
2022-10-21T03:56:03.459Z,79.90
2022-10-21T03:58:29.975Z,79.58
2022-10-21T04:00:56.368Z,79.72
2022-10-21T04:03:22.747Z,79.48
2022-10-21T04:05:49.105Z,79.58
2022-10-21T04:08:15.475Z,79.78
2022-10-21T04:10:41.974Z,79.78
2022-10-21T04:13:08.414Z,79.86
2022-10-21T04:15:34.824Z,80.21
2022-10-21T04:18:01.203Z,80.35
2022-10-21T04:20:27.678Z,80.57
2022-10-21T04:22:54.130Z,80.82
2022-10-21T04:25:20.490Z,81.02
2022-10-21T04:27:46.873Z,80.82
2022-10-21T04:30:13.306Z,81.23
2022-10-21T04:32:39.978Z,81.25
2022-10-21T04:35:06.874Z,80.72
2022-10-21T04:37:33.282Z,81.04
2022-10-21T04:39:59.653Z,81.50
2022-10-21T04:42:26.026Z,81.45
2022-10-21T04:44:52.411Z,81.35
2022-10-21T04:47:18.803Z,80.90
2022-10-21T04:49:45.188Z,81.32
2022-10-21T04:52:11.565Z,81.08
2022-10-21T04:54:37.923Z,81.04
2022-10-21T04:57:04.363Z,80.76
2022-10-21T04:59:30.799Z,81.27
2022-10-21T05:01:57.196Z,80.94
2022-10-21T05:04:23.610Z,81.17
2022-10-21T05:06:50.025Z,80.96
2022-10-21T05:09:16.580Z,81.07
2022-10-21T05:11:43.025Z,80.48
2022-10-21T05:14:09.392Z,80.71
2022-10-21T05:16:35.829Z,80.86
2022-10-21T05:19:02.232Z,80.80
2022-10-21T05:21:28.650Z,80.86
2022-10-21T05:23:55.143Z,81.16
2022-10-21T05:26:21.552Z,81.23
2022-10-21T05:28:47.937Z,81.74
2022-10-21T05:31:14.285Z,81.60
2022-10-21T05:33:40.647Z,81.92
2022-10-21T05:36:08.640Z,81.39
2022-10-21T05:38:35.403Z,81.58
2022-10-21T05:41:01.901Z,81.70
2022-10-21T05:43:28.339Z,81.42
2022-10-21T05:45:54.802Z,81.47
2022-10-21T05:48:21.251Z,81.29
2022-10-21T05:50:48.021Z,81.72
2022-10-21T05:53:14.693Z,82.00
2022-10-21T05:55:41.054Z,82.32
2022-10-21T05:58:07.806Z,82.34
2022-10-21T06:00:34.266Z,82.19
2022-10-21T06:03:00.656Z,82.39
2022-10-21T06:05:27.194Z,82.21
2022-10-21T06:07:53.626Z,82.18
2022-10-21T06:10:20.037Z,82.52
2022-10-21T06:12:46.395Z,82.77
2022-10-21T06:15:12.835Z,82.88
2022-10-21T06:17:43.178Z,82.78
2022-10-21T06:20:09.689Z,82.99
2022-10-21T06:22:36.092Z,83.13
2022-10-21T06:25:02.554Z,83.30
2022-10-21T06:27:29.022Z,83.29
2022-10-21T06:29:55.399Z,83.61
2022-10-21T06:32:21.790Z,84.47
2022-10-21T06:34:48.190Z,85.15
2022-10-21T06:37:14.566Z,85.24
2022-10-21T06:39:40.969Z,85.34
2022-10-21T06:42:07.344Z,85.55
2022-10-21T06:44:33.744Z,86.46
2022-10-21T06:47:00.180Z,86.44
2022-10-21T06:49:26.599Z,87.09
2022-10-21T06:51:52.990Z,88.04
2022-10-21T06:54:19.358Z,87.69
2022-10-21T06:56:45.771Z,87.78
2022-10-21T06:59:12.276Z,88.20
2022-10-21T07:01:59.117Z,88.22
2022-10-21T07:04:25.244Z,89.09
2022-10-21T07:06:51.698Z,90.13
2022-10-21T07:09:18.081Z,90.78
2022-10-21T07:11:44.693Z,90.73
2022-10-21T07:14:12.551Z,90.50
2022-10-21T07:16:38.998Z,90.91
2022-10-21T07:19:05.950Z,91.28
2022-10-21T07:21:32.653Z,91.27
2022-10-21T07:23:59.920Z,92.21
2022-10-21T07:26:28.226Z,91.70
2022-10-21T07:28:55.285Z,91.85
2022-10-21T07:31:21.893Z,92.63
2022-10-21T07:33:48.510Z,93.95
2022-10-21T07:36:22.603Z,94.17
2022-10-21T07:38:49.582Z,94.07
2022-10-21T07:41:20.687Z,94.63
2022-10-21T07:43:47.307Z,95.79
2022-10-21T07:46:13.840Z,98.42
2022-10-21T07:48:40.224Z,97.37
2022-10-21T07:51:08.114Z,99.47
2022-10-21T07:53:34.606Z,100.00
2022-10-21T07:56:05.912Z,100.00
2022-10-21T07:58:32.791Z,100.00
2022-10-21T08:01:00.390Z,100.00
2022-10-21T08:03:27.492Z,100.00
2022-10-21T08:05:54.057Z,100.00
2022-10-21T08:08:23.691Z,100.00
2022-10-21T08:10:51.505Z,100.00
2022-10-21T08:13:18.427Z,100.00
2022-10-21T08:15:46.349Z,100.00
2022-10-21T08:18:12.870Z,100.00
2022-10-21T08:20:43.901Z,99.57
2022-10-21T08:23:14.666Z,100.00
2022-10-21T08:25:46.555Z,99.12
2022-10-21T08:28:12.917Z,99.37
2022-10-21T08:30:39.282Z,99.06
2022-10-21T08:33:05.656Z,99.09
2022-10-21T08:35:32.083Z,98.49
2022-10-21T08:37:58.511Z,98.65
2022-10-21T08:40:25.431Z,98.65
2022-10-21T08:42:52.369Z,98.66
2022-10-21T08:45:24.808Z,98.38
2022-10-21T08:47:55.116Z,98.76
2022-10-21T08:50:25.918Z,98.88
2022-10-21T08:52:55.790Z,98.17
2022-10-21T08:55:24.146Z,98.21
2022-10-21T08:57:53.591Z,97.40
2022-10-21T09:00:32.675Z,97.69
2022-10-21T09:03:01.853Z,97.04
2022-10-21T09:05:31.739Z,96.46
2022-10-21T09:08:11.465Z,96.95
2022-10-21T09:10:51.317Z,97.19
2022-10-21T09:13:34.980Z,96.91
2022-10-21T09:16:13.535Z,96.09
2022-10-21T09:18:51.590Z,96.65
2022-10-21T09:21:32.894Z,96.39
2022-10-21T09:24:06.513Z,96.40
2022-10-21T09:26:46.923Z,96.59
2022-10-21T09:29:33.336Z,96.83
2022-10-21T09:32:02.871Z,95.97
2022-10-21T09:34:37.547Z,96.21
2022-10-21T09:37:05.520Z,96.07
2022-10-21T09:39:42.693Z,94.27
2022-10-21T09:42:29.165Z,95.18
2022-10-21T09:44:58.579Z,94.38
2022-10-21T09:47:25.137Z,93.67
2022-10-21T09:50:12.520Z,93.71
2022-10-21T09:52:39.366Z,92.28
2022-10-21T09:55:06.365Z,92.65
2022-10-21T09:57:48.468Z,92.88
2022-10-21T10:00:14.949Z,92.60
2022-10-21T10:02:46.115Z,91.58
2022-10-21T10:05:31.190Z,91.51
2022-10-21T10:07:57.581Z,90.77
2022-10-21T10:10:31.577Z,90.73
2022-10-21T10:12:58.703Z,91.04
2022-10-21T10:15:32.815Z,90.55
2022-10-21T10:17:59.815Z,88.70
2022-10-21T10:20:26.608Z,88.74
2022-10-21T10:22:58.808Z,89.03
2022-10-21T10:25:28.614Z,88.45
2022-10-21T10:27:56.559Z,87.20
2022-10-21T10:30:24.497Z,86.58
2022-10-21T10:32:52.289Z,86.32
2022-10-21T10:35:28.198Z,86.63
2022-10-21T10:37:54.813Z,87.56
2022-10-21T10:40:23.937Z,87.23
2022-10-21T10:42:51.757Z,86.18
2022-10-21T10:45:22.158Z,86.67
2022-10-21T10:47:52.247Z,85.72
2022-10-21T10:50:37.047Z,83.87
2022-10-21T10:53:21.226Z,82.58
2022-10-21T10:55:51.596Z,81.89
2022-10-21T10:58:20.328Z,82.83
2022-10-21T11:00:51.679Z,82.57
2022-10-21T11:03:26.195Z,82.66
2022-10-21T11:05:53.741Z,80.58
2022-10-21T11:08:34.208Z,78.58
2022-10-21T11:11:03.065Z,77.04
2022-10-21T11:13:29.673Z,75.48
2022-10-21T11:16:01.232Z,75.36
2022-10-21T11:18:53.961Z,75.08
2022-10-21T11:21:39.095Z,73.61
2022-10-21T11:24:11.928Z,73.09
2022-10-21T11:26:57.032Z,75.50
2022-10-21T11:29:33.267Z,75.35
2022-10-21T11:32:12.855Z,76.23
2022-10-21T11:34:57.915Z,75.54
2022-10-21T11:37:46.664Z,74.40
2022-10-21T11:40:18.223Z,73.52
2022-10-21T11:42:47.093Z,73.90
2022-10-21T11:45:32.354Z,72.67
2022-10-21T11:48:04.866Z,74.38
2022-10-21T11:50:40.470Z,73.78
2022-10-21T11:53:21.884Z,73.93
2022-10-21T11:56:08.812Z,74.18
2022-10-21T11:58:44.219Z,72.24
2022-10-21T12:01:16.628Z,71.86
2022-10-21T12:04:01.686Z,73.00
2022-10-21T12:06:43.534Z,71.64
2022-10-21T12:09:16.551Z,72.60
2022-10-21T12:11:46.200Z,72.40
2022-10-21T12:14:28.930Z,69.47
2022-10-21T12:16:59.126Z,70.50
2022-10-21T12:19:25.999Z,70.35
2022-10-21T12:21:52.747Z,71.20
2022-10-21T12:24:25.856Z,69.79
2022-10-21T12:26:52.383Z,70.92
2022-10-21T12:29:24.584Z,70.86
2022-10-21T12:31:53.986Z,70.14
2022-10-21T12:34:20.693Z,68.20
2022-10-21T12:36:50.936Z,66.96
2022-10-21T12:39:32.606Z,67.04
2022-10-21T12:42:05.510Z,68.32
2022-10-21T12:44:32.889Z,68.38
2022-10-21T12:47:03.389Z,68.71
2022-10-21T12:49:34.199Z,68.95
2022-10-21T12:52:04.224Z,67.51
2022-10-21T12:54:35.186Z,68.08
2022-10-21T12:57:06.572Z,69.07
2022-10-21T12:59:40.625Z,67.38
2022-10-21T13:02:07.924Z,67.66
2022-10-21T13:04:34.387Z,66.57
2022-10-21T13:07:03.750Z,67.92
2022-10-21T13:09:41.410Z,67.83
2022-10-21T13:12:10.866Z,67.30
2022-10-21T13:14:42.714Z,67.49
2022-10-21T13:17:14.857Z,67.20
2022-10-21T13:19:41.488Z,66.11
2022-10-21T13:22:31.130Z,67.32
2022-10-21T13:24:57.494Z,66.93
2022-10-21T13:27:23.910Z,65.94
2022-10-21T13:29:50.904Z,67.13
2022-10-21T13:32:17.920Z,68.04
2022-10-21T13:34:56.413Z,67.08
2022-10-21T13:37:37.634Z,65.04
2022-10-21T13:40:06.685Z,66.00
2022-10-21T13:42:39.687Z,66.68
2022-10-21T13:45:24.017Z,66.70
2022-10-21T13:48:00.742Z,66.56
2022-10-21T13:50:28.436Z,66.55
2022-10-21T13:52:55.161Z,65.85
2022-10-21T13:55:23.106Z,66.88
2022-10-21T13:57:50.791Z,67.56
2022-10-21T14:00:19.047Z,67.50
2022-10-21T14:02:49.804Z,67.36
2022-10-21T14:05:31.565Z,66.64
2022-10-21T14:07:58.045Z,66.95
2022-10-21T14:10:24.694Z,65.47
2022-10-21T14:12:51.428Z,64.60
2022-10-21T14:15:19.541Z,65.34
2022-10-21T14:17:50.913Z,64.41
2022-10-21T14:20:22.464Z,64.70
2022-10-21T14:22:49.858Z,64.45
2022-10-21T14:25:18.211Z,64.03
2022-10-21T14:27:47.055Z,64.93
2022-10-21T14:30:18.573Z,64.03
2022-10-21T14:32:46.282Z,65.08
2022-10-21T14:35:12.688Z,64.75
2022-10-21T14:37:49.558Z,64.12
2022-10-21T14:40:18.906Z,62.63
2022-10-21T14:42:48.657Z,64.09
2022-10-21T14:45:23.448Z,62.99
2022-10-21T14:47:50.854Z,63.87
2022-10-21T14:50:19.623Z,63.79
2022-10-21T14:52:47.393Z,63.04
2022-10-21T14:55:14.919Z,62.13
2022-10-21T14:57:44.496Z,62.59
2022-10-21T15:00:28.939Z,62.45
2022-10-21T15:02:57.288Z,62.83
2022-10-21T15:05:28.784Z,63.47
2022-10-21T15:08:14.324Z,63.91
2022-10-21T15:10:40.904Z,63.25
2022-10-21T15:13:17.510Z,63.86
2022-10-21T15:15:48.214Z,63.15
2022-10-21T15:18:24.916Z,62.61
2022-10-21T15:20:53.761Z,63.11
2022-10-21T15:23:22.402Z,62.99
2022-10-21T15:25:51.772Z,63.04
2022-10-21T15:28:19.354Z,63.25
2022-10-21T15:30:46.101Z,63.27
2022-10-21T15:33:12.878Z,63.43
2022-10-21T15:35:39.266Z,62.10
2022-10-21T15:38:05.648Z,61.67
2022-10-21T15:40:33.098Z,61.84
2022-10-21T15:42:59.480Z,61.25
2022-10-21T15:45:25.893Z,62.16
2022-10-21T15:47:53.675Z,61.88
2022-10-21T15:50:23.935Z,61.83
2022-10-21T15:52:50.520Z,60.99
2022-10-21T15:55:16.955Z,61.59
2022-10-21T15:57:44.590Z,62.62
2022-10-21T16:00:29.142Z,62.60
2022-10-21T16:02:55.572Z,62.22
2022-10-21T16:05:22.075Z,61.72
2022-10-21T16:07:48.769Z,62.62
2022-10-21T16:10:18.199Z,62.30
2022-10-21T16:12:44.790Z,62.53
2022-10-21T16:15:11.377Z,63.21
2022-10-21T16:17:37.816Z,62.60
2022-10-21T16:20:04.479Z,61.91
2022-10-21T16:22:31.113Z,61.61
2022-10-21T16:24:57.477Z,61.17
2022-10-21T16:27:43.345Z,61.65
2022-10-21T16:30:20.722Z,61.12
2022-10-21T16:32:47.536Z,61.93
2022-10-21T16:35:14.894Z,61.29
2022-10-21T16:37:41.442Z,61.40
2022-10-21T16:40:16.299Z,60.99
2022-10-21T16:42:42.900Z,60.46
2022-10-21T16:45:09.653Z,60.42
2022-10-21T16:47:36.809Z,60.38
2022-10-21T16:50:04.379Z,60.48
2022-10-21T16:52:32.160Z,60.59
2022-10-21T16:54:58.552Z,61.01
2022-10-21T16:57:24.935Z,61.96
2022-10-21T16:59:51.297Z,62.67
2022-10-21T17:02:19.406Z,62.52
2022-10-21T17:04:47.193Z,62.97
2022-10-21T17:07:13.843Z,63.72
2022-10-21T17:09:40.249Z,64.20
2022-10-21T17:12:07.623Z,64.62
2022-10-21T17:17:05.430Z,64.63
2022-10-21T17:19:31.903Z,64.80
2022-10-21T17:21:58.335Z,65.06
2022-10-21T17:24:25.801Z,65.10
2022-10-21T17:26:52.328Z,65.42
2022-10-21T17:29:18.687Z,65.28
2022-10-21T17:31:45.102Z,65.71
2022-10-21T17:34:21.339Z,65.24
2022-10-21T17:36:47.691Z,65.55
2022-10-21T17:39:14.073Z,65.69
2022-10-21T17:41:40.477Z,65.97
2022-10-21T17:44:06.946Z,65.74
2022-10-21T17:46:33.312Z,66.49
2022-10-21T17:48:59.670Z,66.21
2022-10-21T17:51:26.042Z,66.47
2022-10-21T17:53:53.578Z,66.06
2022-10-21T17:56:20.555Z,66.33
2022-10-21T17:58:50.786Z,65.86
2022-10-21T18:01:17.327Z,66.70
2022-10-21T18:03:44.264Z,65.94
2022-10-21T18:06:11.612Z,66.95
2022-10-21T18:08:38.025Z,66.04
2022-10-21T18:11:08.612Z,66.60
2022-10-21T18:13:35.028Z,67.70
2022-10-21T18:16:03.381Z,65.42
2022-10-21T18:18:30.286Z,64.18
2022-10-21T18:21:01.568Z,65.23
2022-10-21T18:23:28.118Z,66.38
2022-10-21T18:25:54.565Z,67.13
2022-10-21T18:28:20.987Z,67.80
2022-10-21T18:30:47.399Z,68.13
2022-10-21T18:33:13.771Z,68.53
2022-10-21T18:35:40.343Z,69.05
2022-10-21T18:38:06.721Z,68.95
2022-10-21T18:40:33.537Z,68.98
2022-10-21T18:43:00.123Z,69.26
2022-10-21T18:45:26.559Z,69.21
2022-10-21T18:47:54.436Z,69.65
2022-10-21T18:50:20.810Z,69.42
2022-10-21T18:52:47.385Z,70.35
2022-10-21T18:55:13.774Z,70.37
2022-10-21T18:57:40.305Z,70.22
2022-10-21T19:00:07.193Z,70.77
2022-10-21T19:02:33.628Z,70.86
2022-10-21T19:05:02.135Z,71.54
2022-10-21T19:07:29.113Z,71.11
2022-10-21T19:09:55.536Z,71.72
2022-10-21T19:12:23.529Z,71.76
2022-10-21T19:14:50.266Z,71.99
2022-10-21T19:17:16.728Z,71.68
2022-10-21T19:19:43.090Z,72.33
2022-10-21T19:22:09.529Z,72.05
2022-10-21T19:24:36.162Z,72.63
2022-10-21T19:27:02.558Z,72.18
2022-10-21T19:29:28.950Z,72.05
2022-10-21T19:31:56.773Z,71.88
2022-10-21T19:34:26.405Z,70.93
2022-10-21T19:36:52.914Z,71.54
2022-10-21T19:39:19.325Z,71.39
2022-10-21T19:41:45.757Z,71.95
2022-10-21T19:44:12.159Z,72.04
2022-10-21T19:46:39.298Z,72.45
2022-10-21T19:49:06.468Z,72.63
2022-10-21T19:51:32.840Z,73.16
2022-10-21T19:53:59.373Z,72.44
2022-10-21T19:56:29.697Z,72.66
2022-10-21T19:58:57.248Z,73.40
2022-10-21T20:01:25.556Z,73.64
2022-10-21T20:03:52.626Z,73.34
2022-10-21T20:06:23.884Z,73.07
2022-10-21T20:08:50.641Z,72.83
2022-10-21T20:11:18.519Z,73.60
2022-10-21T20:13:44.944Z,73.58
2022-10-21T20:16:18.299Z,73.42
2022-10-21T20:18:44.710Z,73.57
2022-10-21T20:21:12.095Z,73.75
2022-10-21T20:23:38.500Z,74.13
2022-10-21T20:26:05.150Z,73.89
2022-10-21T20:28:31.718Z,74.15
2022-10-21T20:30:59.874Z,74.18
2022-10-21T20:33:27.232Z,74.78
2022-10-21T20:35:53.690Z,74.65
2022-10-21T20:38:20.265Z,74.39
2022-10-21T20:41:13.283Z,75.09
2022-10-21T20:43:40.612Z,75.12
2022-10-21T20:46:11.515Z,74.93
2022-10-21T20:48:42.511Z,75.29
2022-10-21T20:51:10.301Z,75.48
2022-10-21T20:53:39.945Z,75.20
2022-10-21T20:56:07.382Z,75.90
2022-10-21T20:58:35.176Z,75.71
2022-10-21T21:01:17.933Z,75.97
2022-10-21T21:03:44.951Z,75.89
2022-10-21T21:06:12.503Z,76.42
2022-10-21T21:08:48.562Z,76.53
2022-10-21T21:11:26.138Z,76.05
2022-10-21T21:13:52.529Z,76.75
2022-10-21T21:16:22.239Z,76.62
2022-10-21T21:18:52.908Z,76.86
2022-10-21T21:21:19.856Z,76.67
2022-10-21T21:23:46.499Z,76.82
2022-10-21T21:26:15.693Z,77.58
2022-10-21T21:28:42.082Z,78.19
2022-10-21T21:31:09.502Z,77.53
2022-10-21T21:33:36.173Z,78.45
2022-10-21T21:36:04.768Z,78.35
2022-10-21T21:38:31.941Z,78.35
2022-10-21T21:40:58.844Z,78.42
2022-10-21T21:43:25.589Z,78.15
2022-10-21T21:45:52.007Z,78.31
2022-10-21T21:48:18.666Z,78.45
2022-10-21T21:50:45.530Z,77.90
2022-10-21T21:53:13.144Z,78.52
2022-10-21T21:55:39.919Z,78.17
2022-10-21T21:58:06.820Z,78.46
2022-10-21T22:00:33.619Z,78.99
2022-10-21T22:03:00.006Z,78.77
2022-10-21T22:05:27.227Z,78.26
2022-10-21T22:07:53.624Z,78.32
2022-10-21T22:10:20.039Z,78.81
2022-10-21T22:12:46.441Z,79.05
2022-10-21T22:15:19.784Z,79.65
2022-10-21T22:17:59.617Z,79.43
2022-10-21T22:20:26.011Z,80.25
2022-10-21T22:22:52.400Z,79.88
2022-10-21T22:25:18.841Z,79.75
2022-10-21T22:27:45.237Z,80.18
2022-10-21T22:30:16.596Z,80.58
2022-10-21T22:32:43.188Z,80.56
2022-10-21T22:35:09.976Z,80.67
2022-10-21T22:37:37.029Z,80.79
2022-10-21T22:40:03.798Z,80.97
2022-10-21T22:42:30.218Z,80.93
2022-10-21T22:44:56.583Z,80.72
2022-10-21T22:47:23.509Z,80.37
2022-10-21T22:49:50.632Z,80.28
2022-10-21T22:52:17.324Z,80.22
2022-10-21T22:54:49.675Z,80.61
2022-10-21T22:57:16.463Z,81.09
2022-10-21T22:59:44.159Z,80.62
2022-10-21T23:02:11.050Z,80.84
2022-10-21T23:04:37.450Z,81.43
2022-10-21T23:07:03.848Z,81.51
2022-10-21T23:09:30.240Z,81.19
2022-10-21T23:11:56.714Z,81.58
2022-10-21T23:14:23.161Z,82.04
2022-10-21T23:16:49.608Z,82.16
2022-10-21T23:19:16.008Z,82.91
2022-10-21T23:21:42.633Z,82.89
2022-10-21T23:24:09.046Z,82.12
2022-10-21T23:26:35.892Z,82.53
2022-10-21T23:29:02.299Z,82.76
2022-10-21T23:31:28.709Z,82.34
2022-10-21T23:33:55.118Z,83.34
2022-10-21T23:36:21.583Z,82.83
2022-10-21T23:38:47.980Z,83.31
2022-10-21T23:41:14.394Z,83.49
2022-10-21T23:43:40.948Z,83.41
2022-10-21T23:46:07.438Z,84.09
2022-10-21T23:48:33.985Z,84.89
2022-10-21T23:51:00.341Z,84.59
2022-10-21T23:53:26.724Z,85.35
2022-10-21T23:55:53.108Z,84.89
2022-10-21T23:58:19.558Z,85.15
